sensor_id;sensor_type;location;lat;lon;timestamp;pressure;altitude;pressure_sealevel;temperature;humidity
58658;BME280;44428;45.630;13.786;2022-10-22T00:00:10;101768.00;;;18.05;81.53
58658;BME280;44428;45.630;13.786;2022-10-22T00:02:37;101762.91;;;18.02;81.86
58658;BME280;44428;45.630;13.786;2022-10-22T00:05:03;101763.50;;;18.05;81.87
58658;BME280;44428;45.630;13.786;2022-10-22T00:07:29;101762.38;;;18.08;81.88
58658;BME280;44428;45.630;13.786;2022-10-22T00:09:55;101762.38;;;18.08;82.08
58658;BME280;44428;45.630;13.786;2022-10-22T00:12:21;101760.97;;;18.04;82.22
58658;BME280;44428;45.630;13.786;2022-10-22T00:14:47;101752.94;;;18.04;82.33
58658;BME280;44428;45.630;13.786;2022-10-22T00:17:14;101754.16;;;18.00;82.86
58658;BME280;44428;45.630;13.786;2022-10-22T00:19:40;101746.88;;;18.02;82.68
58658;BME280;44428;45.630;13.786;2022-10-22T00:22:06;101744.38;;;18.10;82.14
58658;BME280;44428;45.630;13.786;2022-10-22T00:24:33;101744.38;;;18.10;82.32
58658;BME280;44428;45.630;13.786;2022-10-22T00:27:00;101741.84;;;18.08;82.72
58658;BME280;44428;45.630;13.786;2022-10-22T00:29:26;101751.94;;;18.05;83.07
58658;BME280;44428;45.630;13.786;2022-10-22T00:31:51;101752.75;;;17.96;83.41
58658;BME280;44428;45.630;13.786;2022-10-22T00:34:18;101745.44;;;17.98;83.50
58658;BME280;44428;45.630;13.786;2022-10-22T00:36:46;101747.13;;;17.99;83.62
58658;BME280;44428;45.630;13.786;2022-10-22T00:39:14;101747.13;;;17.99;83.58
58658;BME280;44428;45.630;13.786;2022-10-22T00:41:45;101745.19;;;18.01;83.88
58658;BME280;44428;45.630;13.786;2022-10-22T00:47:15;101725.47;;;18.02;83.94
58658;BME280;44428;45.630;13.786;2022-10-22T00:49:42;101721.81;;;18.03;84.15
58658;BME280;44428;45.630;13.786;2022-10-22T00:52:10;101714.50;;;18.05;84.06
58658;BME280;44428;45.630;13.786;2022-10-22T00:54:36;101714.50;;;18.05;83.89
58658;BME280;44428;45.630;13.786;2022-10-22T00:57:03;101718.03;;;18.05;84.21
58658;BME280;44428;45.630;13.786;2022-10-22T00:59:29;101723.25;;;18.07;84.09
58658;BME280;44428;45.630;13.786;2022-10-22T01:01:56;101722.16;;;18.10;83.86
58658;BME280;44428;45.630;13.786;2022-10-22T01:04:21;101716.53;;;18.13;83.91
58658;BME280;44428;45.630;13.786;2022-10-22T01:06:47;101725.53;;;18.12;83.65
58658;BME280;44428;45.630;13.786;2022-10-22T01:12:09;101721.00;;;18.12;83.61
58658;BME280;44428;45.630;13.786;2022-10-22T01:19:56;101705.84;;;18.13;82.76
58658;BME280;44428;45.630;13.786;2022-10-22T01:22:37;101695.72;;;18.16;81.96
58658;BME280;44428;45.630;13.786;2022-10-22T01:30:07;101683.84;;;18.09;82.12
58658;BME280;44428;45.630;13.786;2022-10-22T01:32:39;101695.72;;;18.16;81.95
58658;BME280;44428;45.630;13.786;2022-10-22T01:35:09;101682.16;;;18.08;81.92
58658;BME280;44428;45.630;13.786;2022-10-22T01:37:48;101679.88;;;18.03;82.04
58658;BME280;44428;45.630;13.786;2022-10-22T01:40:16;101677.06;;;18.05;81.91
58658;BME280;44428;45.630;13.786;2022-10-22T01:42:56;101677.34;;;18.02;82.02
58658;BME280;44428;45.630;13.786;2022-10-22T01:45:22;101665.22;;;17.98;82.00
58658;BME280;44428;45.630;13.786;2022-10-22T01:53:16;101655.63;;;17.95;82.32
58658;BME280;44428;45.630;13.786;2022-10-22T01:58:38;101675.53;;;17.81;83.16
58658;BME280;44428;45.630;13.786;2022-10-22T02:04:15;101656.34;;;17.76;83.38
58658;BME280;44428;45.630;13.786;2022-10-22T02:06:44;101656.09;;;17.79;83.37
58658;BME280;44428;45.630;13.786;2022-10-22T02:09:14;101659.22;;;17.84;83.12
58658;BME280;44428;45.630;13.786;2022-10-22T02:11:41;101658.25;;;17.85;83.03
58658;BME280;44428;45.630;13.786;2022-10-22T02:14:08;101655.44;;;17.87;82.89
58658;BME280;44428;45.630;13.786;2022-10-22T02:16:39;101654.72;;;17.85;83.08
58658;BME280;44428;45.630;13.786;2022-10-22T02:19:16;101655.75;;;17.94;82.73
58658;BME280;44428;45.630;13.786;2022-10-22T02:21:44;101649.69;;;17.92;82.88
58658;BME280;44428;45.630;13.786;2022-10-22T02:24:10;101640.16;;;17.99;82.13
58658;BME280;44428;45.630;13.786;2022-10-22T02:29:38;101639.63;;;18.05;82.01
58658;BME280;44428;45.630;13.786;2022-10-22T02:32:08;101645.25;;;18.02;82.35
58658;BME280;44428;45.630;13.786;2022-10-22T02:34:35;101639.88;;;18.02;82.28
58658;BME280;44428;45.630;13.786;2022-10-22T02:37:02;101630.19;;;18.01;82.26
58658;BME280;44428;45.630;13.786;2022-10-22T02:39:28;101635.97;;;18.06;82.04
58658;BME280;44428;45.630;13.786;2022-10-22T02:41:55;101629.50;;;18.08;82.10
58658;BME280;44428;45.630;13.786;2022-10-22T02:44:23;101625.72;;;18.11;82.02
58658;BME280;44428;45.630;13.786;2022-10-22T02:46:49;101617.41;;;18.14;81.76
58658;BME280;44428;45.630;13.786;2022-10-22T02:49:16;101606.72;;;18.14;81.79
58658;BME280;44428;45.630;13.786;2022-10-22T02:51:42;101602.50;;;18.21;81.45
58658;BME280;44428;45.630;13.786;2022-10-22T02:54:07;101605.72;;;18.15;81.68
58658;BME280;44428;45.630;13.786;2022-10-22T02:56:33;101606.63;;;18.25;80.73
58658;BME280;44428;45.630;13.786;2022-10-22T02:58:59;101610.97;;;18.26;80.42
58658;BME280;44428;45.630;13.786;2022-10-22T03:01:24;101623.09;;;18.30;80.27
58658;BME280;44428;45.630;13.786;2022-10-22T03:03:50;101626.03;;;18.27;80.30
58658;BME280;44428;45.630;13.786;2022-10-22T03:06:16;101619.47;;;18.31;80.25
58658;BME280;44428;45.630;13.786;2022-10-22T03:08:42;101625.78;;;18.30;80.47
58658;BME280;44428;45.630;13.786;2022-10-22T03:11:08;101628.78;;;18.37;80.02
58658;BME280;44428;45.630;13.786;2022-10-22T03:13:34;101637.19;;;18.33;80.60
58658;BME280;44428;45.630;13.786;2022-10-22T03:16:00;101633.56;;;18.34;80.37
58658;BME280;44428;45.630;13.786;2022-10-22T03:18:26;101617.75;;;18.30;80.67
58658;BME280;44428;45.630;13.786;2022-10-22T03:21:11;101610.44;;;18.33;80.66
58658;BME280;44428;45.630;13.786;2022-10-22T03:23:39;101607.91;;;18.31;80.81
58658;BME280;44428;45.630;13.786;2022-10-22T03:26:07;101597.78;;;18.35;80.49
58658;BME280;44428;45.630;13.786;2022-10-22T03:28:34;101592.44;;;18.35;81.02
58658;BME280;44428;45.630;13.786;2022-10-22T03:31:00;101577.63;;;18.30;80.96
58658;BME280;44428;45.630;13.786;2022-10-22T03:33:26;101588.31;;;18.30;80.90
58658;BME280;44428;45.630;13.786;2022-10-22T03:35:51;101601.97;;;18.27;81.24
58658;BME280;44428;45.630;13.786;2022-10-22T03:38:17;101575.50;;;18.24;81.29
58658;BME280;44428;45.630;13.786;2022-10-22T03:40:43;101583.66;;;18.13;81.77
58658;BME280;44428;45.630;13.786;2022-10-22T03:43:10;101595.75;;;18.17;81.92
58658;BME280;44428;45.630;13.786;2022-10-22T03:45:36;101591.50;;;18.15;82.17
58658;BME280;44428;45.630;13.786;2022-10-22T03:48:02;101613.75;;;18.15;82.05
58658;BME280;44428;45.630;13.786;2022-10-22T03:50:27;101616.97;;;18.09;82.42
58658;BME280;44428;45.630;13.786;2022-10-22T03:52:53;101615.19;;;18.19;82.07
58658;BME280;44428;45.630;13.786;2022-10-22T03:55:19;101614.94;;;18.22;81.96
58658;BME280;44428;45.630;13.786;2022-10-22T03:57:45;101608.84;;;18.20;81.98
58658;BME280;44428;45.630;13.786;2022-10-22T04:00:10;101607.84;;;18.21;82.26
58658;BME280;44428;45.630;13.786;2022-10-22T04:02:36;101607.31;;;18.27;81.87
58658;BME280;44428;45.630;13.786;2022-10-22T04:05:02;101612.94;;;18.24;82.13
58658;BME280;44428;45.630;13.786;2022-10-22T04:07:28;101614.09;;;18.22;81.59
58658;BME280;44428;45.630;13.786;2022-10-22T04:09:54;101610.13;;;18.16;81.65
58658;BME280;44428;45.630;13.786;2022-10-22T04:12:19;101615.19;;;18.19;81.72
58658;BME280;44428;45.630;13.786;2022-10-22T04:14:46;101617.34;;;18.25;81.20
58658;BME280;44428;45.630;13.786;2022-10-22T04:17:12;101621.13;;;18.23;81.55
58658;BME280;44428;45.630;13.786;2022-10-22T04:19:38;101627.31;;;18.23;81.38
58658;BME280;44428;45.630;13.786;2022-10-22T04:22:03;101616.59;;;18.23;81.42
58658;BME280;44428;45.630;13.786;2022-10-22T04:24:30;101623.38;;;18.27;81.33
58658;BME280;44428;45.630;13.786;2022-10-22T04:26:56;101620.97;;;18.24;81.18
58658;BME280;44428;45.630;13.786;2022-10-22T04:29:23;101606.19;;;18.20;81.60
58658;BME280;44428;45.630;13.786;2022-10-22T04:31:49;101604.50;;;18.19;81.55
58658;BME280;44428;45.630;13.786;2022-10-22T04:34:15;101597.44;;;18.18;81.76
58658;BME280;44428;45.630;13.786;2022-10-22T04:36:40;101603.41;;;18.31;80.93
58658;BME280;44428;45.630;13.786;2022-10-22T04:39:06;101609.56;;;18.22;81.35
58658;BME280;44428;45.630;13.786;2022-10-22T04:41:35;101611.25;;;18.23;81.45
58658;BME280;44428;45.630;13.786;2022-10-22T04:44:02;101609.84;;;18.19;81.61
58658;BME280;44428;45.630;13.786;2022-10-22T04:46:30;101603.94;;;18.16;81.60
58658;BME280;44428;45.630;13.786;2022-10-22T04:48:56;101599.41;;;18.16;81.66
58658;BME280;44428;45.630;13.786;2022-10-22T04:51:23;101614.47;;;18.17;81.76
58658;BME280;44428;45.630;13.786;2022-10-22T04:53:49;101615.47;;;18.16;81.70
58658;BME280;44428;45.630;13.786;2022-10-22T04:56:17;101611.81;;;18.17;81.86
58658;BME280;44428;45.630;13.786;2022-10-22T04:58:47;101603.78;;;18.17;81.80
58658;BME280;44428;45.630;13.786;2022-10-22T05:01:18;101595.47;;;18.20;81.50
58658;BME280;44428;45.630;13.786;2022-10-22T05:03:44;101588.44;;;18.19;81.90
58658;BME280;44428;45.630;13.786;2022-10-22T05:06:12;101576.31;;;18.15;81.94
58658;BME280;44428;45.630;13.786;2022-10-22T05:08:38;101574.63;;;18.14;82.10
58658;BME280;44428;45.630;13.786;2022-10-22T05:11:16;101581.50;;;18.07;82.57
58658;BME280;44428;45.630;13.786;2022-10-22T05:13:42;101574.63;;;18.14;82.34
58658;BME280;44428;45.630;13.786;2022-10-22T05:16:08;101569.81;;;18.08;82.65
58658;BME280;44428;45.630;13.786;2022-10-22T05:18:36;101560.81;;;18.09;82.77
58658;BME280;44428;45.630;13.786;2022-10-22T05:21:14;101554.78;;;18.17;82.34
58658;BME280;44428;45.630;13.786;2022-10-22T05:23:41;101558.31;;;18.17;82.32
58658;BME280;44428;45.630;13.786;2022-10-22T05:26:09;101553.50;;;18.11;82.50
58658;BME280;44428;45.630;13.786;2022-10-22T05:28:35;101548.16;;;18.11;82.51
58658;BME280;44428;45.630;13.786;2022-10-22T05:31:03;101544.47;;;18.12;82.71
58658;BME280;44428;45.630;13.786;2022-10-22T05:33:32;101530.84;;;18.15;82.82
58658;BME280;44428;45.630;13.786;2022-10-22T05:35:58;101533.78;;;18.12;82.60
58658;BME280;44428;45.630;13.786;2022-10-22T05:38:24;101539.13;;;18.12;82.88
58658;BME280;44428;45.630;13.786;2022-10-22T05:41:20;101551.53;;;18.13;82.88
58658;BME280;44428;45.630;13.786;2022-10-22T05:43:46;101558.31;;;18.17;82.64
58658;BME280;44428;45.630;13.786;2022-10-22T05:46:14;101559.03;;;18.19;82.81
58658;BME280;44428;45.630;13.786;2022-10-22T05:48:40;101572.09;;;18.13;83.13
58658;BME280;44428;45.630;13.786;2022-10-22T05:51:10;101557.16;;;18.10;83.27
58658;BME280;44428;45.630;13.786;2022-10-22T05:53:38;101570.00;;;18.16;83.14
58658;BME280;44428;45.630;13.786;2022-10-22T05:56:06;101582.25;;;18.19;83.21
58658;BME280;44428;45.630;13.786;2022-10-22T05:58:33;101579.44;;;18.20;83.37
58658;BME280;44428;45.630;13.786;2022-10-22T06:01:07;101577.75;;;18.19;83.47
58658;BME280;44428;45.630;13.786;2022-10-22T06:03:35;101580.28;;;18.21;83.18
58658;BME280;44428;45.630;13.786;2022-10-22T06:06:06;101563.38;;;18.20;83.37
58658;BME280;44428;45.630;13.786;2022-10-22T06:08:37;101575.63;;;18.23;83.13
58658;BME280;44428;45.630;13.786;2022-10-22T06:11:03;101580.84;;;18.24;83.30
58658;BME280;44428;45.630;13.786;2022-10-22T06:13:29;101571.41;;;18.20;83.72
58658;BME280;44428;45.630;13.786;2022-10-22T06:15:57;101575.50;;;18.24;83.17
58658;BME280;44428;45.630;13.786;2022-10-22T06:18:23;101589.31;;;18.29;83.13
58658;BME280;44428;45.630;13.786;2022-10-22T06:20:49;101584.50;;;18.23;83.50
58658;BME280;44428;45.630;13.786;2022-10-22T06:23:15;101578.88;;;18.26;83.23
58658;BME280;44428;45.630;13.786;2022-10-22T06:25:41;101596.88;;;18.24;83.12
58658;BME280;44428;45.630;13.786;2022-10-22T06:28:08;101605.63;;;18.26;83.35
58658;BME280;44428;45.630;13.786;2022-10-22T06:30:36;101607.03;;;18.30;83.04
58658;BME280;44428;45.630;13.786;2022-10-22T06:33:02;101600.31;;;18.36;82.74
58658;BME280;44428;45.630;13.786;2022-10-22T06:35:28;101594.97;;;18.36;82.76
58658;BME280;44428;45.630;13.786;2022-10-22T06:37:53;101603.59;;;18.40;82.38
58658;BME280;44428;45.630;13.786;2022-10-22T06:40:19;101598.63;;;18.45;82.36
58658;BME280;44428;45.630;13.786;2022-10-22T06:42:45;101604.00;;;18.45;82.48
58658;BME280;44428;45.630;13.786;2022-10-22T06:45:11;101597.81;;;18.54;81.82
58658;BME280;44428;45.630;13.786;2022-10-22T06:47:37;101596.13;;;18.53;81.66
58658;BME280;44428;45.630;13.786;2022-10-22T06:50:02;101597.53;;;18.57;81.69
58658;BME280;44428;45.630;13.786;2022-10-22T06:52:28;101598.69;;;18.64;81.36
58658;BME280;44428;45.630;13.786;2022-10-22T06:54:54;101595.91;;;18.75;80.61
58658;BME280;44428;45.630;13.786;2022-10-22T06:57:20;101609.28;;;18.75;80.64
58658;BME280;44428;45.630;13.786;2022-10-22T06:59:46;101611.41;;;18.82;80.31
58658;BME280;44428;45.630;13.786;2022-10-22T07:02:11;101603.81;;;18.87;80.12
58658;BME280;44428;45.630;13.786;2022-10-22T07:04:37;101604.66;;;18.97;79.50
58658;BME280;44428;45.630;13.786;2022-10-22T07:07:03;101585.22;;;18.95;79.52
58658;BME280;44428;45.630;13.786;2022-10-22T07:09:28;101595.38;;;18.91;79.76
58658;BME280;44428;45.630;13.786;2022-10-22T07:11:54;101575.91;;;18.99;79.28
58658;BME280;44428;45.630;13.786;2022-10-22T07:14:20;101580.25;;;19.00;79.49
58658;BME280;44428;45.630;13.786;2022-10-22T07:16:45;101584.66;;;19.01;79.32
58658;BME280;44428;45.630;13.786;2022-10-22T07:19:12;101582.66;;;19.03;79.18
58658;BME280;44428;45.630;13.786;2022-10-22T07:21:38;101583.25;;;19.07;78.96
58658;BME280;44428;45.630;13.786;2022-10-22T07:24:04;101589.16;;;19.10;78.22
58658;BME280;44428;45.630;13.786;2022-10-22T07:26:30;101579.56;;;19.17;77.85
58658;BME280;44428;45.630;13.786;2022-10-22T07:28:58;101591.69;;;19.21;77.43
58658;BME280;44428;45.630;13.786;2022-10-22T07:31:24;101606.63;;;19.24;77.29
58658;BME280;44428;45.630;13.786;2022-10-22T07:33:50;101600.13;;;19.27;76.95
58658;BME280;44428;45.630;13.786;2022-10-22T07:36:16;101599.16;;;19.28;77.15
58658;BME280;44428;45.630;13.786;2022-10-22T07:38:47;101604.81;;;19.25;77.79
58658;BME280;44428;45.630;13.786;2022-10-22T07:41:14;101594.78;;;19.27;77.62
58658;BME280;44428;45.630;13.786;2022-10-22T07:43:40;101600.69;;;19.30;77.43
58658;BME280;44428;45.630;13.786;2022-10-22T07:46:06;101595.63;;;19.37;77.13
58658;BME280;44428;45.630;13.786;2022-10-22T07:48:34;101608.03;;;19.38;76.71
58658;BME280;44428;45.630;13.786;2022-10-22T07:51:00;101604.34;;;19.39;76.87
58658;BME280;44428;45.630;13.786;2022-10-22T07:53:26;101606.63;;;19.34;77.39
58658;BME280;44428;45.630;13.786;2022-10-22T07:55:51;101606.63;;;19.34;77.33
58658;BME280;44428;45.630;13.786;2022-10-22T07:58:18;101602.94;;;19.35;76.98
58658;BME280;44428;45.630;13.786;2022-10-22T08:00:44;101597.03;;;19.31;77.33
58658;BME280;44428;45.630;13.786;2022-10-22T08:03:11;101609.03;;;19.37;77.12
58658;BME280;44428;45.630;13.786;2022-10-22T08:05:37;101601.28;;;19.34;77.31
58658;BME280;44428;45.630;13.786;2022-10-22T08:08:04;101613.69;;;19.35;77.45
58658;BME280;44428;45.630;13.786;2022-10-22T08:10:31;101617.63;;;19.31;77.98
58658;BME280;44428;45.630;13.786;2022-10-22T08:12:57;101610.56;;;19.30;78.37
58658;BME280;44428;45.630;13.786;2022-10-22T08:15:23;101601.56;;;19.31;78.42
58658;BME280;44428;45.630;13.786;2022-10-22T08:17:50;101617.34;;;19.34;78.11
58658;BME280;44428;45.630;13.786;2022-10-22T08:20:16;101619.03;;;19.35;78.00
58658;BME280;44428;45.630;13.786;2022-10-22T08:22:43;101619.31;;;19.32;78.28
58658;BME280;44428;45.630;13.786;2022-10-22T08:25:09;101610.28;;;19.33;78.39
58658;BME280;44428;45.630;13.786;2022-10-22T08:27:35;101622.81;;;19.42;77.99
58658;BME280;44428;45.630;13.786;2022-10-22T08:30:02;101619.84;;;19.45;77.91
58658;BME280;44428;45.630;13.786;2022-10-22T08:32:29;101622.97;;;19.50;77.84
58658;BME280;44428;45.630;13.786;2022-10-22T08:34:55;101622.97;;;19.50;77.94
58658;BME280;44428;45.630;13.786;2022-10-22T08:37:20;101612.81;;;19.44;78.62
58658;BME280;44428;45.630;13.786;2022-10-22T08:39:46;101624.94;;;19.48;78.20
58658;BME280;44428;45.630;13.786;2022-10-22T08:45:14;101621.28;;;19.49;78.78
58658;BME280;44428;45.630;13.786;2022-10-22T08:53:10;101612.22;;;19.79;77.38
58658;BME280;44428;45.630;13.786;2022-10-22T08:55:38;101614.13;;;19.87;77.32
58658;BME280;44428;45.630;13.786;2022-10-22T08:58:42;101599.75;;;19.88;77.16
58658;BME280;44428;45.630;13.786;2022-10-22T09:01:13;101614.13;;;19.87;77.09
58658;BME280;44428;45.630;13.786;2022-10-22T09:04:02;101604.25;;;19.97;76.97
58658;BME280;44428;45.630;13.786;2022-10-22T09:06:32;101608.19;;;19.93;76.88
58658;BME280;44428;45.630;13.786;2022-10-22T09:09:00;101600.72;;;19.87;76.95
58658;BME280;44428;45.630;13.786;2022-10-22T09:11:31;101610.19;;;19.91;77.08
58658;BME280;44428;45.630;13.786;2022-10-22T09:13:58;101612.16;;;19.89;77.59
58658;BME280;44428;45.630;13.786;2022-10-22T09:27:34;101614.69;;;20.00;77.52
58658;BME280;44428;45.630;13.786;2022-10-22T09:29:59;101621.13;;;20.07;77.07
58658;BME280;44428;45.630;13.786;2022-10-22T09:32:26;101615.75;;;20.07;77.17
58658;BME280;44428;45.630;13.786;2022-10-22T09:34:56;101627.09;;;20.01;77.09
58658;BME280;44428;45.630;13.786;2022-10-22T09:37:26;101629.06;;;19.99;77.34
58658;BME280;44428;45.630;13.786;2022-10-22T09:39:54;101626.66;;;19.96;77.38
58658;BME280;44428;45.630;13.786;2022-10-22T09:42:21;101639.78;;;19.99;77.89
58658;BME280;44428;45.630;13.786;2022-10-22T09:44:55;101642.09;;;19.94;77.52
58658;BME280;44428;45.630;13.786;2022-10-22T09:47:40;101622.00;;;19.98;77.50
58658;BME280;44428;45.630;13.786;2022-10-22T09:52:41;101627.38;;;19.98;77.20
58658;BME280;44428;45.630;13.786;2022-10-22T09:55:16;101628.94;;;20.01;77.10
58658;BME280;44428;45.630;13.786;2022-10-22T09:57:43;101620.41;;;20.05;76.79
58658;BME280;44428;45.630;13.786;2022-10-22T10:00:10;101618.88;;;20.12;76.80
58658;BME280;44428;45.630;13.786;2022-10-22T10:02:39;101624.00;;;20.24;76.06
58658;BME280;44428;45.630;13.786;2022-10-22T10:05:07;101634.06;;;20.22;76.03
58658;BME280;44428;45.630;13.786;2022-10-22T10:07:34;101631.53;;;20.20;76.13
58658;BME280;44428;45.630;13.786;2022-10-22T10:10:01;101620.25;;;20.17;76.50
58658;BME280;44428;45.630;13.786;2022-10-22T10:17:46;101619.66;;;20.23;76.16
58658;BME280;44428;45.630;13.786;2022-10-22T10:20:40;101606.22;;;20.23;76.44
58658;BME280;44428;45.630;13.786;2022-10-22T10:25:48;101624.13;;;20.32;75.94
58658;BME280;44428;45.630;13.786;2022-10-22T10:28:24;101612.50;;;20.41;75.58
58658;BME280;44428;45.630;13.786;2022-10-22T10:31:04;101598.06;;;20.42;75.73
58658;BME280;44428;45.630;13.786;2022-10-22T10:36:35;101603.84;;;20.47;75.38
58658;BME280;44428;45.630;13.786;2022-10-22T10:39:07;101604.13;;;20.44;75.62
58658;BME280;44428;45.630;13.786;2022-10-22T10:42:07;101596.09;;;20.44;75.39
58658;BME280;44428;45.630;13.786;2022-10-22T10:44:37;101599.78;;;20.43;75.95
58658;BME280;44428;45.630;13.786;2022-10-22T10:52:52;101607.63;;;20.54;75.18
58658;BME280;44428;45.630;13.786;2022-10-22T10:55:27;101607.91;;;20.51;74.90
58658;BME280;44428;45.630;13.786;2022-10-22T11:00:54;101594.28;;;20.63;74.67
58658;BME280;44428;45.630;13.786;2022-10-22T11:06:01;101599.84;;;20.79;73.38
58658;BME280;44428;45.630;13.786;2022-10-22T11:08:49;101588.81;;;20.82;71.71
58658;BME280;44428;45.630;13.786;2022-10-22T11:13:51;101577.34;;;20.80;71.54
58658;BME280;44428;45.630;13.786;2022-10-22T11:16:25;101574.66;;;20.80;71.49
58658;BME280;44428;45.630;13.786;2022-10-22T11:19:03;101573.53;;;20.83;71.37
58658;BME280;44428;45.630;13.786;2022-10-22T11:21:41;101573.44;;;20.92;71.59
58658;BME280;44428;45.630;13.786;2022-10-22T11:24:17;101568.59;;;20.96;71.23
58658;BME280;44428;45.630;13.786;2022-10-22T11:26:57;101557.00;;;20.95;71.35
58658;BME280;44428;45.630;13.786;2022-10-22T11:29:38;101562.38;;;20.95;71.69
58658;BME280;44428;45.630;13.786;2022-10-22T11:32:10;101563.00;;;20.89;71.56
58658;BME280;44428;45.630;13.786;2022-10-22T11:35:04;101562.47;;;20.86;72.17
58658;BME280;44428;45.630;13.786;2022-10-22T11:37:32;101551.72;;;20.86;71.93
58658;BME280;44428;45.630;13.786;2022-10-22T11:40:06;101550.25;;;20.91;71.64
58658;BME280;44428;45.630;13.786;2022-10-22T11:42:36;101549.34;;;21.00;71.35
58658;BME280;44428;45.630;13.786;2022-10-22T11:45:29;101560.06;;;21.00;71.29
58658;BME280;44428;45.630;13.786;2022-10-22T11:47:57;101542.25;;;20.99;70.64
58658;BME280;44428;45.630;13.786;2022-10-22T11:50:42;101543.66;;;21.03;70.93
58658;BME280;44428;45.630;13.786;2022-10-22T12:00:56;101531.47;;;20.91;71.13
58658;BME280;44428;45.630;13.786;2022-10-22T12:16:34;101514.34;;;20.92;71.52
58658;BME280;44428;45.630;13.786;2022-10-22T12:19:11;101507.50;;;20.98;71.34
58658;BME280;44428;45.630;13.786;2022-10-22T12:21:40;101516.09;;;21.01;71.40
58658;BME280;44428;45.630;13.786;2022-10-22T12:24:12;101517.41;;;20.97;71.51
58658;BME280;44428;45.630;13.786;2022-10-22T12:26:38;101515.06;;;21.02;70.87
58658;BME280;44428;45.630;13.786;2022-10-22T12:29:10;101507.06;;;21.11;70.68
58658;BME280;44428;45.630;13.786;2022-10-22T12:31:38;101500.34;;;21.07;70.85
58658;BME280;44428;45.630;13.786;2022-10-22T12:34:04;101502.72;;;21.10;70.94
58658;BME280;44428;45.630;13.786;2022-10-22T12:36:33;101499.66;;;21.04;71.33
58658;BME280;44428;45.630;13.786;2022-10-22T12:39:08;101489.91;;;21.03;71.22
58658;BME280;44428;45.630;13.786;2022-10-22T12:41:36;101485.50;;;21.02;71.04
58658;BME280;44428;45.630;13.786;2022-10-22T12:44:04;101479.16;;;21.03;71.05
58658;BME280;44428;45.630;13.786;2022-10-22T12:46:33;101465.75;;;21.12;70.88
58658;BME280;44428;45.630;13.786;2022-10-22T12:49:13;101457.03;;;21.10;71.21
58658;BME280;44428;45.630;13.786;2022-10-22T12:51:40;101460.28;;;20.95;71.47
58658;BME280;44428;45.630;13.786;2022-10-22T12:54:08;101480.94;;;20.95;71.90
58658;BME280;44428;45.630;13.786;2022-10-22T12:56:37;101502.16;;;20.80;72.38
58658;BME280;44428;45.630;13.786;2022-10-22T13:01:39;101523.41;;;20.55;78.38
58658;BME280;44428;45.630;13.786;2022-10-22T13:06:46;101519.03;;;20.27;80.73
58658;BME280;44428;45.630;13.786;2022-10-22T13:09:20;101505.88;;;20.16;83.80
58658;BME280;44428;45.630;13.786;2022-10-22T13:11:50;101519.88;;;20.09;84.29
58658;BME280;44428;45.630;13.786;2022-10-22T13:14:29;101501.00;;;20.01;84.98
58658;BME280;44428;45.630;13.786;2022-10-22T13:17:15;101499.81;;;19.86;85.38
58658;BME280;44428;45.630;13.786;2022-10-22T13:22:31;101526.97;;;19.63;87.60
58658;BME280;44428;45.630;13.786;2022-10-22T13:27:45;101524.56;;;19.60;86.57
58658;BME280;44428;45.630;13.786;2022-10-22T13:30:20;101533.50;;;19.51;88.57
58658;BME280;44428;45.630;13.786;2022-10-22T13:33:01;101528.44;;;19.48;89.29
58658;BME280;44428;45.630;13.786;2022-10-22T13:35:30;101527.19;;;19.42;89.83
58658;BME280;44428;45.630;13.786;2022-10-22T13:37:58;101533.00;;;19.38;91.17
58658;BME280;44428;45.630;13.786;2022-10-22T13:40:24;101526.81;;;19.28;92.76
58658;BME280;44428;45.630;13.786;2022-10-22T13:42:50;101528.50;;;19.29;90.91
58658;BME280;44428;45.630;13.786;2022-10-22T13:45:16;101515.81;;;19.31;91.38
58658;BME280;44428;45.630;13.786;2022-10-22T13:47:46;101520.00;;;19.33;92.23
58658;BME280;44428;45.630;13.786;2022-10-22T13:50:15;101524.53;;;19.33;92.81
58658;BME280;44428;45.630;13.786;2022-10-22T13:52:48;101528.50;;;19.29;93.33
58658;BME280;44428;45.630;13.786;2022-10-22T13:55:23;101511.28;;;19.31;92.90
58658;BME280;44428;45.630;13.786;2022-10-22T13:57:54;101514.66;;;19.33;93.89
58658;BME280;44428;45.630;13.786;2022-10-22T14:00:22;101523.44;;;19.26;94.38
58658;BME280;44428;45.630;13.786;2022-10-22T14:02:51;101530.75;;;19.23;94.92
58658;BME280;44428;45.630;13.786;2022-10-22T14:05:18;101536.69;;;19.17;93.98
58658;BME280;44428;45.630;13.786;2022-10-22T14:07:44;101552.19;;;19.23;91.61
58658;BME280;44428;45.630;13.786;2022-10-22T14:10:16;101558.69;;;19.11;93.25
58658;BME280;44428;45.630;13.786;2022-10-22T14:12:42;101562.38;;;19.10;94.36
58658;BME280;44428;45.630;13.786;2022-10-22T14:15:11;101590.00;;;19.01;95.23
58658;BME280;44428;45.630;13.786;2022-10-22T14:17:38;101619.31;;;18.93;97.13
58658;BME280;44428;45.630;13.786;2022-10-22T14:20:04;101626.06;;;18.87;98.03
58658;BME280;44428;45.630;13.786;2022-10-22T14:22:30;101615.66;;;18.84;99.21
58658;BME280;44428;45.630;13.786;2022-10-22T14:24:56;101615.94;;;18.81;100.00
58658;BME280;44428;45.630;13.786;2022-10-22T14:27:21;101614.53;;;18.87;100.00
58658;BME280;44428;45.630;13.786;2022-10-22T14:29:47;101605.50;;;18.88;100.00
58658;BME280;44428;45.630;13.786;2022-10-22T14:32:15;101624.38;;;18.76;100.00
58658;BME280;44428;45.630;13.786;2022-10-22T14:34:44;101642.22;;;18.66;100.00
58658;BME280;44428;45.630;13.786;2022-10-22T14:37:14;101649.13;;;18.59;100.00